Overview Statistics Trail Chart Weather Telemetry Raw packets
 

This is the latest recevied weather packets stored in our database for station/object SV2RCS-13. If no packets are shown the sender has not sent any weather packets the latest 10 day(s).

<< 19 20 21 22 23 24 25 >>
Time Temp. Humidity Pressure Rain* Wind** Luminosity Snow
1788093338 31.67° C 17% 1010.6 hPa - - - -
1788092739 31.67° C 17% 1010.8 hPa - - - -
1788092138 31.67° C 17% 1011 hPa - - - -
1788091538 31.67° C 17% 1011.1 hPa - - - -
1788090938 31.67° C 17% 1011.2 hPa - - - -
1788090338 31.67° C 17% 1011.4 hPa - - - -
1788089738 31.67° C 17% 1011.2 hPa - - - -
1788089138 31.67° C 17% 1011.4 hPa - - - -
1788088538 31.67° C 17% 1011.5 hPa - - - -
1788087938 31.67° C 17% 1011.7 hPa - - - -
1788087338 31.67° C 17% 1011.6 hPa - - - -
1788086738 31.67° C 17% 1011.9 hPa - - - -
1788086139 31.67° C 17% 1012 hPa - - - -
1788085542 31.67° C 17% 1011.9 hPa - - - -
1788084938 32.22° C 17% 1011.9 hPa - - - -
1788084338 32.22° C 17% 1011.9 hPa - - - -
1788083753 32.78° C 16% 1011.8 hPa - - - -
1788083138 33.33° C 16% 1011.8 hPa - - - -
1788082541 33.89° C 15% 1012 hPa - - - -
1788081938 33.33° C 17% 1012.2 hPa - - - -
1788081338 35° C 15% 1012 hPa - - - -
1788080738 38.33° C 13% 1011.3 hPa - - - -
1788080137 36.11° C 18% 1011.9 hPa - - - -
1788079538 37.22° C 17% 1011.7 hPa - - - -
1788078938 36.11° C 16% 1012 hPa - - - -

* Rain since midnight (hover to see other rain measurements)
** Current wind speed in m/s (hover to see current wind gust speed)